Latest Coastal Weather Observations for Willis Island

IDQ60701

Issued at 12:01 am EST Saturday 13 February 2016 (issued every 10 minutes, with the page automatically refreshed every 10 minutes)

About coastal observations | Map of coastal stations | Coastal observations for QLD | Marine services | Other Formats
Station Details ID: 200283 Name: WILLIS ISLAND Lat: -16.29 Lon: 149.97 Height: 9.29 m
Data from the previous 72 hours. | See also: Recent months at Willis Island
Date/Time
EST
Temp

°C
Wind Pressure Rain
since 9am
mm
Weather Cloud Vis
km
Sea
Height
m
Swell
Dir
 
Speed
knots
Gust
knots
hPa Trend Height
m
Period
s
Dir
13/12:00am 27.9 S 17 20 1005.9 F 0.0 - - - - - - -
 
Date/Time
EST
Temp

°C
Wind Pressure Rain
since 9am
mm
Weather Cloud Vis
km
Sea
Height
m
Swell
Dir
 
Speed
knots
Gust
knots
hPa Trend Height
m
Period
s
Dir
12/11:30pm 28.0 S 17 19 1006.4 - 0.0 - - - - - - -
12/11:00pm 28.1 S 17 20 1006.9 - 0.0 - - - - - - -
12/10:30pm 27.9 S 19 23 1007.1 - 0.0 - - - - - - -
12/10:00pm 28.2 S 19 21 1007.3 - 0.0 - - - - - - -
12/09:30pm 28.2 S 18 22 1007.3 - 0.0 - - - - - - -
12/09:00pm 28.1 S 16 19 1007.0 F 0.0 Fine Mostly clear 30 - 9.0 - CF
12/08:30pm 28.6 S 17 20 1006.8 - 0.0 - - - - - - -
12/08:00pm 28.4 S 18 20 1006.7 - 0.0 - - - - - - -
12/07:30pm 28.5 S 17 20 1006.5 - 0.0 - - - - - - -
12/07:00pm 28.6 S 18 20 1006.2 - 0.0 - - - - - - -
12/06:30pm 28.7 S 18 21 1005.8 - 0.0 - - - - - - -
12/06:00pm 28.8 S 19 22 1005.6 R 0.0 Fine Partly cloudy 30 2 1.8 13 SE
12/05:30pm 28.9 S 19 22 1005.3 - 0.0 - - - - - - -
12/05:00pm 29.3 S 19 22 1004.8 - 0.0 - - - - - - -
12/04:30pm 29.5 S 19 22 1004.5 - 0.0 - - - - - - -
12/04:00pm 29.4 S 18 23 1004.5 - 0.0 - - - - - - -
12/03:30pm 29.4 S 19 21 1004.5 - 0.0 - - - - - - -
12/03:00pm 29.3 S 19 22 1004.7 F 0.0 Fine Partly cloudy 30 2 1.5 12 SE
12/02:30pm 30.3 S 17 20 1004.8 - 0.0 - - - - - - -
12/02:00pm 30.1 SSW 18 20 1005.0 - 0.0 - - - - - - -
12/01:30pm 30.3 SSW 15 17 1005.4 - 0.0 - - - - - - -
12/01:00pm 30.3 SSW 16 18 1005.7 - 0.0 - - - - - - -
12/12:30pm 30.0 SSW 16 18 1006.1 - 0.0 - - - - - - -
12/12:00pm 29.9 SSW 17 19 1006.4 F 0.0 Haze Mostly clear 25 1 1.1 7 SW
12/11:30am 30.1 SSW 17 19 1006.8 - 0.0 - - - - - - -
12/11:00am 30.2 S 16 18 1007.4 - 0.0 - - - - - - -
12/10:30am 29.9 S 15 18 1007.7 - 0.0 - - - - - - -
12/10:00am 29.6 S 17 19 1008.0 - 0.0 - - - - - - -
12/09:30am 29.6 S 15 17 1008.1 - 0.0 - - - - - - -
12/09:00am 29.4 S 16 18 1008.1 S 1.0 Haze Mostly clear 25 1 1.0 6 SW
12/08:30am 28.9 S 17 19 1007.7 - 1.0 - - - - - - -
12/08:00am 28.6 S 17 19 1007.5 - 1.0 - - - - - - -
12/07:30am 28.6 S 17 19 1007.3 - 1.0 - - - - - - -
12/07:00am 28.5 S 15 17 1007.2 - 1.0 - - - - - - -
12/06:30am 28.2 S 15 17 1006.9 - 1.0 - - - - - - -
12/06:00am 28.1 S 16 19 1006.5 R 1.0 Fine Partly cloudy 30 1 0.7 6 SW
12/05:30am 28.0 S 16 18 1006.3 - 1.0 - - - - - - -
12/05:00am 28.0 S 16 18 1006.2 - 1.0 - - - - - - -
12/04:30am 27.8 S 16 19 1005.9 - 1.0 - - - - - - -
12/04:00am 27.8 S 16 18 1005.8 - 1.0 - - - - - - -
12/03:30am 27.7 S 15 17 1005.7 - 1.0 - - - - - - -
12/03:00am 26.3 SE 9 13 1005.6 R 1.0 Recent precip. - - - - - -
12/02:39am 26.1 SSE 15 20 1005.6 - 1.0 - - - - - - -
12/02:30am 26.3 S 20 24 1005.8 - 1.0 - - - - - - -
12/02:00am 26.5 SSW 18 23 1006.0 - 0.2 - - - - - - -
12/01:30am 28.3 SSE 13 15 1006.1 - 0.0 - - - - - - -
12/01:00am 28.1 SSE 15 17 1006.3 - 0.0 - - - - - - -
12/12:30am 28.1 SSE 15 17 1006.5 - 0.0 - - - - - - -
12/12:00am 28.2 SSE 15 18 1006.9 F 0.0 - - - - - - -
 
Date/Time
EST
Temp

°C
Wind Pressure Rain
since 9am
mm
Weather Cloud Vis
km
Sea
Height
m
Swell
Dir
 
Speed
knots
Gust
knots
hPa Trend Height
m
Period
s
Dir
11/11:30pm 28.0 SSE 12 14 1007.3 - 0.0 - - - - - - -
11/11:00pm 27.5 SSE 20 23 1007.7 - 0.0 - - - - - - -
11/10:30pm 28.2 SSE 12 15 1007.9 - 0.0 - - - - - - -
11/10:00pm 28.1 SSE 12 15 1007.9 - 0.0 - - - - - - -
11/09:30pm 28.3 SSE 13 17 1007.9 - 0.0 - - - - - - -
11/09:00pm 28.3 SSE 13 15 1007.7 R 0.0 Distant precip. Partly cloudy 25 - - - -
11/08:30pm 28.4 SSE 15 18 1007.5 - 0.0 - - - - - - -
11/08:00pm 28.4 SSE 14 16 1007.3 - 0.0 - - - - - - -
11/07:30pm 28.4 SSE 14 17 1007.0 - 0.0 - - - - - - -
11/07:00pm 28.4 SSE 15 19 1006.8 - 0.0 - - - - - - -
11/06:30pm 28.6 SSE 16 19 1006.5 - 0.0 - - - - - - -
11/06:00pm 28.9 S 15 18 1005.9 R 0.0 Fine Partly cloudy 25 1 1.0 14 SE
11/05:30pm 29.6 S 14 17 1005.7 - 0.0 - - - - - - -
11/05:00pm 29.7 S 15 19 1005.5 - 0.0 - - - - - - -
11/04:30pm 30.0 S 14 16 1005.1 - 0.0 - - - - - - -
11/04:00pm 30.1 SSE 13 16 1004.9 - 0.0 - - - - - - -
11/03:30pm 30.7 SSE 14 16 1005.0 - 0.0 - - - - - - -
11/03:00pm 30.6 SSE 14 18 1005.0 R 0.0 Fine Mostly clear 30 2 1.0 8 SE
11/02:30pm 30.8 SSE 14 16 1005.0 - 0.0 - - - - - - -
11/02:00pm 30.9 SSE 13 16 1005.3 - 0.0 - - - - - - -
11/01:30pm 31.3 SSE 14 16 1005.5 - 0.0 - - - - - - -
11/01:00pm 31.3 SSE 13 16 1005.8 - 0.0 - - - - - - -
11/12:30pm 31.2 SSE 14 16 1006.1 - 0.0 - - - - - - -
11/12:00pm 31.0 SSE 14 16 1006.4 F 0.0 Fine Partly cloudy 30 2 1.8 12 SE
11/11:30am 30.8 SSE 13 16 1006.8 - 0.0 - - - - - - -
11/11:00am 30.5 SSE 14 16 1007.0 - 0.0 - - - - - - -
11/10:30am 30.0 SSE 14 17 1007.2 - 0.0 - - - - - - -
11/10:00am 30.3 SSE 14 16 1007.3 - 0.0 - - - - - - -
11/09:30am 30.3 SE 14 17 1007.5 - 0.0 - - - - - - -
11/09:00am 29.6 SSE 15 17 1007.7 R 6.2 Fine Partly cloudy 30 2 1.7 13 SE
11/08:30am 29.4 SSE 14 17 1007.6 - 6.2 - - - - - - -
11/08:00am 28.8 SSE 16 19 1007.5 - 6.2 - - - - - - -
11/07:30am 29.0 SE 17 19 1007.0 - 6.2 - - - - - - -
11/07:00am 27.5 SE 15 18 1006.7 - 6.2 - - - - - - -
11/06:30am 27.0 SSE 19 22 1006.2 - 6.2 - - - - - - -
11/06:00am 28.0 SSE 14 16 1005.8 R 6.2 Distant precip. Partly cloudy 30 2 2.0 15 SE
11/05:30am 27.9 SSE 15 18 1005.5 - 6.2 - - - - - - -
11/05:00am 28.0 SSE 16 19 1005.2 - 6.2 - - - - - - -
11/04:30am 28.1 SSE 15 17 1004.9 - 6.2 - - - - - - -
11/04:00am 27.8 SSE 17 20 1004.4 - 6.2 - - - - - - -
11/03:30am 27.8 SSE 15 19 1004.5 - 6.2 - - - - - - -
11/03:00am 27.9 SSE 17 20 1004.5 R 6.2 - - - - - - -
11/02:30am 27.8 SSE 16 19 1004.5 - 6.2 - - - - - - -
11/02:00am 27.9 SSE 18 21 1004.7 - 6.2 - - - - - - -
11/01:30am 28.0 SSE 19 22 1005.0 - 6.2 - - - - - - -
11/01:00am 28.1 SSE 19 21 1005.2 - 6.2 - - - - - - -
11/12:30am 28.0 SSE 19 22 1005.5 - 6.2 - - - - - - -
11/12:00am 28.1 SSE 17 21 1005.9 F 6.2 - - - - - - -
 
Date/Time
EST
Temp

°C
Wind Pressure Rain
since 9am
mm
Weather Cloud Vis
km
Sea
Height
m
Swell
Dir
 
Speed
knots
Gust
knots
hPa Trend Height
m
Period
s
Dir
10/11:30pm 28.2 SSE 20 22 1006.3 - 6.2 - - - - - - -
10/11:00pm 28.5 SSE 19 23 1006.6 - 6.2 - - - - - - -
10/10:30pm 28.5 SSE 19 21 1006.9 - 6.2 - - - - - - -
10/10:00pm 28.4 SSE 18 21 1007.1 - 6.2 - - - - - - -
10/09:30pm 28.4 SSE 18 22 1007.1 - 6.2 - - - - - - -
10/09:00pm 28.1 SSE 20 22 1006.9 F 6.2 Recent precip. Mostly cloudy 20 - - - -
10/08:30pm 27.2 SE 22 26 1006.8 - 5.6 - - - - - - -
10/08:00pm 28.1 SSE 20 22 1006.3 - 5.6 - - - - - - -
10/07:30pm 27.9 SSE 19 22 1006.3 - 5.4 - - - - - - -
10/07:00pm 27.2 SSE 19 23 1006.1 - 5.4 - - - - - - -
10/06:47pm 27.1 S 21 25 1006.0 - 5.2 - - - - - - -
10/06:30pm 28.4 SSE 17 22 1005.8 - 5.2 - - - - - - -
10/06:00pm 28.2 SSE 18 21 1005.4 R 5.2 Recent precip. Mostly cloudy 25 1 1.0 8 SE
10/05:44pm 28.0 SSE 11 19 1005.3 - 5.2 - - - - - - -
10/05:30pm 26.8 SE 7 9 1005.2 - 5.2 - - - - - - -
10/05:00pm 26.0 SE 9 14 1004.9 - 4.8 - - - - - - -
10/04:45pm 26.0 S 15 25 1004.9 - 3.4 - - - - - - -
10/04:30pm 26.1 SSE 14 17 1004.7 - 2.2 - - - - - - -
10/04:00pm 26.3 SSE 20 26 1004.5 - 0.4 - - - - - - -
10/03:30pm 28.2 S 21 24 1004.1 - 0.2 - - - - - - -
10/03:00pm 30.2 SSE 17 20 1004.0 R 0.2 Distant precip. Mostly cloudy 25 2 1.0 9 SE
10/02:30pm 29.3 SSE 17 19 1004.3 - 0.2 - - - - - - -
10/02:00pm 29.4 SSE 18 21 1004.5 - 0.2 - - - - - - -
10/01:30pm 29.2 SSE 16 19 1004.8 - 0.2 - - - - - - -
10/01:00pm 29.5 SSE 16 18 1005.2 - 0.2 - - - - - - -
10/12:30pm 27.5 SSE 19 23 1005.4 - 0.2 - - - - - - -
10/12:00pm 29.3 S 19 21 1005.5 R 0.0 Recent precip. Mostly cloudy 25 2 2.0 15 SE
10/11:30am 28.0 SSE 16 20 1005.9 - 0.0 - - - - - - -
10/11:00am 30.2 SSE 16 19 1005.9 - 0.0 - - - - - - -
10/10:30am 28.6 S 13 17 1006.2 - 0.0 - - - - - - -
10/10:00am 29.3 SSE 19 22 1006.3 - 0.0 - - - - - - -
10/09:30am 29.5 SSE 17 20 1006.2 - 0.0 - - - - - - -
10/09:00am 29.8 SSE 15 18 1006.3 R 2.8 Showers Mostly cloudy 30 2 2.0 15 SE
10/08:30am 29.5 SSE 15 17 1006.4 - 2.8 - - - - - - -
10/08:00am 29.6 SSE 16 18 1006.1 - 2.8 - - - - - - -
10/07:30am 29.3 SSE 17 19 1005.7 - 2.8 - - - - - - -
10/07:00am 28.9 SSE 17 20 1005.4 - 2.8 - - - - - - -
10/06:30am 28.4 SSE 18 21 1004.6 - 2.8 - - - - - - -
10/06:00am 28.1 SSE 19 23 1004.5 S 2.8 Recent precip. Partly cloudy 30 2 1.6 13 SE
10/05:30am 28.0 SSE 17 20 1004.3 - 2.8 - - - - - - -
10/05:00am 27.9 SSE 18 23 1004.1 - 2.6 - - - - - - -
10/04:30am 27.7 SE 19 23 1003.9 - 2.6 - - - - - - -
10/04:00am 28.2 SSE 20 22 1003.6 - 2.6 - - - - - - -
10/03:30am 28.2 SE 19 23 1003.6 - 2.6 - - - - - - -
10/03:00am 28.2 SE 18 22 1003.8 R 2.6 - - - - - - -
10/02:30am 28.3 SE 20 22 1004.1 - 2.6 - - - - - - -
10/02:00am 28.3 SE 20 24 1004.3 - 2.6 - - - - - - -
10/01:30am 28.2 SE 22 26 1004.4 - 2.6 - - - - - - -
10/01:00am 28.0 SE 22 28 1004.4 - 2.6 - - - - - - -
10/12:30am 26.3 SE 25 35 1005.0 - 2.2 - - - - - - -
10/12:22am 27.7 SE 20 31 1005.1 - 0.8 - - - - - - -

Other Formats:

Comma delimited format used in spreadsheet applications
http://www.bom.gov.au/fwo/IDQ60701/IDQ60701.94299.axf

JavaScript Object Notation format (JSON) in row-major order
http://www.bom.gov.au/fwo/IDQ60701/IDQ60701.94299.json